Time;durP1;ratioP1;P1;durP2;ratioP2;P2;SDS_P1;SDS_P2;PMS_P1;PMS_P2;Temp;Humidity;BMP_temperature;BMP_pressure;BME280_temperature;BME280_humidity;BME280_pressure;Samples;Min_cycle;Max_cycle;Signal;HPM_P1;HPM_P2
2022/04/05 00:00:57;;;;;;;7.23;4.50;;;;;;;;;;4451809;32;20302;-53
2022/04/05 00:03:23;;;;;;;15.97;7.17;;;;;;;;;;4455238;32;20236;-53
2022/04/05 00:05:48;;;;;;;11.07;6.63;;;;;;;;;;4454373;32;20316;-53
2022/04/05 00:08:16;;;;;;;17.37;8.10;;;;;;;;;;4456931;32;20342;-53
2022/04/05 00:10:42;;;;;;;15.63;8.23;;;;;;;;;;4448921;32;20326;-53
2022/04/05 00:13:08;;;;;;;13.40;7.33;;;;;;;;;;4457597;32;20307;-54
2022/04/05 00:15:34;;;;;;;21.93;10.00;;;;;;;;;;4453834;32;20295;-54
2022/04/05 00:18:00;;;;;;;19.10;9.33;;;;;;;;;;4451267;32;20327;-53
2022/04/05 00:20:28;;;;;;;15.27;8.20;;;;;;;;;;4455553;32;20339;-55
2022/04/05 00:22:54;;;;;;;20.00;9.60;;;;;;;;;;4450512;32;20232;-54
2022/04/05 00:25:20;;;;;;;17.87;8.83;;;;;;;;;;4447362;32;20789;-53
2022/04/05 00:27:46;;;;;;;17.13;8.57;;;;;;;;;;4454857;32;20228;-53
2022/04/05 00:30:13;;;;;;;14.83;7.73;;;;;;;;;;4450680;32;20307;-53
2022/04/05 00:32:38;;;;;;;14.87;7.73;;;;;;;;;;4454536;32;20310;-54
2022/04/05 00:35:05;;;;;;;18.17;8.60;;;;;;;;;;4459577;32;20279;-54
2022/04/05 00:37:31;;;;;;;15.00;8.07;;;;;;;;;;4447716;32;20648;-54
2022/04/05 00:39:56;;;;;;;15.00;7.30;;;;;;;;;;4446769;32;20346;-55
2022/04/05 00:42:22;;;;;;;12.37;6.73;;;;;;;;;;4454500;32;20283;-54
2022/04/05 00:44:47;;;;;;;13.90;7.23;;;;;;;;;;4457337;32;20362;-54
2022/04/05 00:47:18;;;;;;;10.17;6.50;;;;;;;;;;4454048;32;20678;-54
2022/04/05 00:49:46;;;;;;;10.93;6.27;;;;;;;;;;4452423;32;20234;-55
2022/04/05 00:52:13;;;;;;;13.30;7.93;;;;;;;;;;4450246;32;20283;-53
2022/04/05 00:54:40;;;;;;;14.77;8.83;;;;;;;;;;4454267;32;20196;-53
2022/04/05 00:57:11;;;;;;;15.53;9.03;;;;;;;;;;4454712;32;20232;-53
2022/04/05 00:59:42;;;;;;;19.23;8.30;;;;;;;;;;4453189;32;20302;-53
2022/04/05 01:02:13;;;;;;;23.70;11.07;;;;;;;;;;4459902;32;20580;-54
2022/04/05 01:04:42;;;;;;;18.07;10.30;;;;;;;;;;4447459;32;20220;-54
2022/04/05 01:07:15;;;;;;;21.53;11.60;;;;;;;;;;4442673;32;20777;-54
2022/04/05 01:09:41;;;;;;;18.00;10.77;;;;;;;;;;4449542;32;20235;-54
2022/04/05 01:12:10;;;;;;;14.17;9.67;;;;;;;;;;4444453;32;20717;-55
2022/04/05 01:14:37;;;;;;;16.50;9.10;;;;;;;;;;4448972;32;20374;-54
2022/04/05 01:17:03;;;;;;;11.53;8.27;;;;;;;;;;4454236;32;20390;-54
2022/04/05 01:19:30;;;;;;;14.60;9.33;;;;;;;;;;4454309;32;20652;-55
2022/04/05 01:21:55;;;;;;;12.40;8.13;;;;;;;;;;4453932;32;20208;-54
2022/04/05 01:24:21;;;;;;;12.57;7.63;;;;;;;;;;4454353;32;20382;-54
2022/04/05 01:26:51;;;;;;;13.07;7.50;;;;;;;;;;4452407;32;20310;-54
2022/04/05 01:29:19;;;;;;;9.87;6.50;;;;;;;;;;4449906;32;20311;-54
2022/04/05 01:31:47;;;;;;;11.83;6.20;;;;;;;;;;4455299;32;20291;-53
2022/04/05 01:34:15;;;;;;;14.47;7.77;;;;;;;;;;4454821;32;20303;-53
2022/04/05 01:36:43;;;;;;;11.03;7.57;;;;;;;;;;4462694;32;20279;-53
2022/04/05 01:39:10;;;;;;;12.53;7.93;;;;;;;;;;4457544;32;20297;-54
2022/04/05 01:41:36;;;;;;;13.17;7.23;;;;;;;;;;4449032;32;20236;-54
2022/04/05 01:44:02;;;;;;;10.73;7.50;;;;;;;;;;4452654;32;20616;-54
2022/04/05 01:46:28;;;;;;;23.07;13.60;;;;;;;;;;4460397;32;20691;-54
2022/04/05 01:48:53;;;;;;;30.23;18.53;;;;;;;;;;4451847;32;20236;-53
2022/04/05 01:51:18;;;;;;;27.43;16.37;;;;;;;;;;4454847;32;20296;-54
2022/04/05 01:53:44;;;;;;;23.93;14.30;;;;;;;;;;4457394;32;20303;-54
2022/04/05 01:56:09;;;;;;;17.90;11.57;;;;;;;;;;4456839;32;20339;-54
2022/04/05 01:58:36;;;;;;;13.57;9.70;;;;;;;;;;4448232;32;20266;-53
2022/04/05 02:01:02;;;;;;;12.57;7.43;;;;;;;;;;4462099;32;20283;-54
2022/04/05 02:03:29;;;;;;;10.13;7.23;;;;;;;;;;4451376;32;20350;-54
2022/04/05 02:05:54;;;;;;;9.73;7.80;;;;;;;;;;4447365;32;20337;-54
2022/04/05 02:08:19;;;;;;;9.83;6.67;;;;;;;;;;4447446;32;20318;-54
2022/04/05 02:10:45;;;;;;;11.90;6.17;;;;;;;;;;4456090;32;20638;-54
2022/04/05 02:13:11;;;;;;;7.57;5.93;;;;;;;;;;4450926;32;20635;-54
2022/04/05 02:15:36;;;;;;;8.07;4.53;;;;;;;;;;4454741;32;20292;-54
2022/04/05 02:18:02;;;;;;;9.97;4.30;;;;;;;;;;4458799;32;20311;-54
2022/04/05 02:20:27;;;;;;;7.17;4.43;;;;;;;;;;4448794;32;20296;-54
2022/04/05 02:22:52;;;;;;;6.40;4.03;;;;;;;;;;4454984;32;20267;-54
2022/04/05 02:25:18;;;;;;;5.53;4.07;;;;;;;;;;4453906;32;20317;-54
2022/04/05 02:27:43;;;;;;;6.83;4.60;;;;;;;;;;4452851;32;20707;-54
2022/04/05 02:30:10;;;;;;;5.50;3.77;;;;;;;;;;4458118;32;20414;-54
2022/04/05 02:32:36;;;;;;;9.40;4.13;;;;;;;;;;4454620;32;20362;-54
2022/04/05 02:35:03;;;;;;;6.13;4.57;;;;;;;;;;4456700;32;20319;-55
2022/04/05 02:37:28;;;;;;;8.37;5.10;;;;;;;;;;4458790;32;20228;-55
2022/04/05 02:39:53;;;;;;;9.57;5.53;;;;;;;;;;4457159;32;20309;-55
2022/04/05 02:42:19;;;;;;;13.27;7.87;;;;;;;;;;4452628;32;20658;-55
2022/04/05 02:44:44;;;;;;;4.37;3.97;;;;;;;;;;4455231;32;20382;-55
2022/04/05 02:47:11;;;;;;;5.97;4.67;;;;;;;;;;4449479;32;20279;-54
2022/04/05 02:49:36;;;;;;;10.93;3.83;;;;;;;;;;4455007;32;20243;-54
2022/04/05 02:52:03;;;;;;;4.77;3.37;;;;;;;;;;4450539;32;20425;-54
2022/04/05 02:54:29;;;;;;;5.43;3.83;;;;;;;;;;4454563;32;20258;-54
2022/04/05 02:56:54;;;;;;;5.93;4.10;;;;;;;;;;4449124;32;20303;-54
2022/04/05 02:59:20;;;;;;;6.93;4.07;;;;;;;;;;4455379;32;20285;-55
2022/04/05 03:01:45;;;;;;;5.07;3.93;;;;;;;;;;4449442;32;20244;-55
2022/04/05 03:04:11;;;;;;;6.53;4.00;;;;;;;;;;4452064;32;20460;-54
2022/04/05 03:06:37;;;;;;;5.30;3.77;;;;;;;;;;4451465;32;20354;-54
2022/04/05 03:09:02;;;;;;;6.40;4.23;;;;;;;;;;4453781;32;20720;-54
2022/04/05 03:11:28;;;;;;;5.27;4.10;;;;;;;;;;4456731;32;20245;-53
2022/04/05 03:13:54;;;;;;;8.97;4.40;;;;;;;;;;4434407;32;20225;-54
2022/04/05 03:16:19;;;;;;;5.43;4.20;;;;;;;;;;4458138;32;20290;-54
2022/04/05 03:18:48;;;;;;;5.27;3.73;;;;;;;;;;4450118;32;20783;-53
2022/04/05 03:21:14;;;;;;;7.97;5.40;;;;;;;;;;4453576;32;20216;-54
2022/04/05 03:23:40;;;;;;;6.33;5.10;;;;;;;;;;4455683;32;20741;-53
2022/04/05 03:26:06;;;;;;;7.47;5.30;;;;;;;;;;4453816;32;20283;-54
2022/04/05 03:28:31;;;;;;;8.23;4.67;;;;;;;;;;4455680;32;20312;-54
2022/04/05 03:30:57;;;;;;;7.07;5.17;;;;;;;;;;4453091;32;20331;-54
2022/04/05 03:33:22;;;;;;;9.73;5.50;;;;;;;;;;4459232;32;20700;-54
2022/04/05 03:35:48;;;;;;;9.83;5.40;;;;;;;;;;4450461;32;20792;-54
2022/04/05 03:38:13;;;;;;;12.50;6.00;;;;;;;;;;4448862;32;20225;-54
2022/04/05 03:40:39;;;;;;;13.40;5.97;;;;;;;;;;4453437;32;20282;-54
2022/04/05 03:43:07;;;;;;;12.33;6.83;;;;;;;;;;4453865;32;20753;-54
2022/04/05 03:45:33;;;;;;;12.70;5.63;;;;;;;;;;4454198;32;20295;-54
2022/04/05 03:47:59;;;;;;;5.87;3.77;;;;;;;;;;4459369;32;20244;-54
2022/04/05 03:50:24;;;;;;;6.77;4.57;;;;;;;;;;4455808;32;20758;-54
2022/04/05 03:52:50;;;;;;;6.17;4.40;;;;;;;;;;4454700;32;20331;-54
2022/04/05 03:55:15;;;;;;;6.97;4.50;;;;;;;;;;4450726;32;20298;-56
2022/04/05 03:57:41;;;;;;;11.40;5.50;;;;;;;;;;4446410;32;20220;-54
2022/04/05 04:00:07;;;;;;;6.57;4.57;;;;;;;;;;4447523;32;20434;-55
2022/04/05 04:02:35;;;;;;;12.77;3.93;;;;;;;;;;4456291;32;20232;-55
2022/04/05 04:05:01;;;;;;;8.27;5.53;;;;;;;;;;4447748;32;20658;-54
2022/04/05 04:07:26;;;;;;;17.83;8.63;;;;;;;;;;4455533;32;20459;-54
2022/04/05 04:09:52;;;;;;;21.20;10.17;;;;;;;;;;4451458;32;20754;-54
2022/04/05 04:12:17;;;;;;;15.77;7.97;;;;;;;;;;4456952;32;20803;-55
2022/04/05 04:14:43;;;;;;;7.37;5.60;;;;;;;;;;4451962;32;20697;-55
2022/04/05 04:17:08;;;;;;;10.17;5.43;;;;;;;;;;4454418;32;20307;-54
2022/04/05 04:19:34;;;;;;;8.90;5.90;;;;;;;;;;4453126;32;20335;-54
2022/04/05 04:22:01;;;;;;;13.67;6.07;;;;;;;;;;4455825;32;20291;-55
2022/04/05 04:24:26;;;;;;;9.23;6.33;;;;;;;;;;4455089;32;20363;-54
2022/04/05 04:26:52;;;;;;;16.23;6.83;;;;;;;;;;4454179;32;20339;-54
2022/04/05 04:29:17;;;;;;;26.63;12.20;;;;;;;;;;4455514;32;20767;-54
2022/04/05 04:31:43;;;;;;;15.67;10.10;;;;;;;;;;4446099;32;20246;-54
2022/04/05 04:34:08;;;;;;;32.93;11.03;;;;;;;;;;4458823;32;20719;-54
2022/04/05 04:36:34;;;;;;;19.83;10.90;;;;;;;;;;4451884;32;20239;-54
2022/04/05 04:38:59;;;;;;;16.63;9.93;;;;;;;;;;4449884;32;20682;-55
2022/04/05 04:41:25;;;;;;;17.70;9.43;;;;;;;;;;4445047;32;20303;-55
2022/04/05 04:43:51;;;;;;;19.03;11.93;;;;;;;;;;4454440;32;20239;-55
2022/04/05 04:46:17;;;;;;;18.63;9.80;;;;;;;;;;4458254;32;21155;-54
2022/04/05 04:48:43;;;;;;;13.20;6.77;;;;;;;;;;4456205;32;20369;-55
2022/04/05 04:51:09;;;;;;;11.00;5.73;;;;;;;;;;4446627;32;20291;-54
2022/04/05 04:53:34;;;;;;;7.63;5.97;;;;;;;;;;4448913;32;20319;-56
2022/04/05 04:56:00;;;;;;;9.37;6.80;;;;;;;;;;4452767;32;20355;-55
2022/04/05 04:58:26;;;;;;;12.07;7.50;;;;;;;;;;4449527;32;20232;-54
2022/04/05 05:00:51;;;;;;;9.27;6.97;;;;;;;;;;4447323;32;20627;-55
2022/04/05 05:03:18;;;;;;;17.37;10.70;;;;;;;;;;4454505;32;20338;-55
2022/04/05 05:05:44;;;;;;;14.50;8.87;;;;;;;;;;4450143;32;20287;-56
2022/04/05 05:08:09;;;;;;;12.13;8.00;;;;;;;;;;4454267;32;20228;-55
2022/04/05 05:10:34;;;;;;;14.30;7.27;;;;;;;;;;4458552;32;20703;-55
2022/04/05 05:13:00;;;;;;;12.83;7.90;;;;;;;;;;4445288;32;20223;-55
2022/04/05 05:15:27;;;;;;;20.53;11.60;;;;;;;;;;4451063;32;20299;-55
2022/04/05 05:17:55;;;;;;;13.77;9.57;;;;;;;;;;4443939;32;20993;-54
2022/04/05 05:20:21;;;;;;;20.23;10.80;;;;;;;;;;4448664;32;20287;-55
2022/04/05 05:22:47;;;;;;;15.70;9.90;;;;;;;;;;4451418;32;21073;-55
2022/04/05 05:25:13;;;;;;;16.80;11.20;;;;;;;;;;4459940;32;20558;-56
2022/04/05 05:27:38;;;;;;;22.40;11.67;;;;;;;;;;4446250;32;20264;-55
2022/04/05 05:30:07;;;;;;;24.40;13.33;;;;;;;;;;4445401;32;20345;-56
2022/04/05 05:32:40;;;;;;;24.57;14.03;;;;;;;;;;4451962;32;20329;-55
2022/04/05 05:35:05;;;;;;;28.73;13.43;;;;;;;;;;4456261;32;20299;-54
2022/04/05 05:37:31;;;;;;;21.43;13.30;;;;;;;;;;4446833;32;20301;-57
2022/04/05 05:39:56;;;;;;;28.77;15.63;;;;;;;;;;4445171;32;20359;-55
2022/04/05 05:42:22;;;;;;;26.83;14.73;;;;;;;;;;4442626;32;20436;-55
2022/04/05 05:44:47;;;;;;;22.00;11.87;;;;;;;;;;4449100;32;20643;-56
2022/04/05 05:47:13;;;;;;;20.73;10.13;;;;;;;;;;4456491;32;20213;-55
2022/04/05 05:49:38;;;;;;;15.97;9.03;;;;;;;;;;4443893;32;20307;-55
2022/04/05 05:52:04;;;;;;;14.17;10.13;;;;;;;;;;4459063;32;20237;-54
2022/04/05 05:54:29;;;;;;;14.57;9.63;;;;;;;;;;4447452;32;20343;-55
2022/04/05 05:56:55;;;;;;;16.90;11.23;;;;;;;;;;4448491;32;20232;-55
2022/04/05 05:59:22;;;;;;;27.80;15.33;;;;;;;;;;4443205;32;20781;-55
2022/04/05 06:01:48;;;;;;;23.00;16.10;;;;;;;;;;4444829;32;20344;-55
2022/04/05 06:04:14;;;;;;;23.73;12.80;;;;;;;;;;4454010;32;20228;-54
2022/04/05 06:06:39;;;;;;;22.57;13.43;;;;;;;;;;4448425;32;20368;-54
2022/04/05 06:09:06;;;;;;;23.57;13.20;;;;;;;;;;4442957;32;20327;-55
2022/04/05 06:11:31;;;;;;;21.67;13.80;;;;;;;;;;4443654;32;20331;-54
2022/04/05 06:13:57;;;;;;;16.20;11.70;;;;;;;;;;4442567;32;20773;-55
2022/04/05 06:16:22;;;;;;;23.63;13.50;;;;;;;;;;4445102;32;20258;-55
2022/04/05 06:18:48;;;;;;;22.23;12.77;;;;;;;;;;4458139;32;20314;-56
2022/04/05 06:21:19;;;;;;;29.67;15.33;;;;;;;;;;4455089;32;20279;-54
2022/04/05 06:23:45;;;;;;;23.57;15.20;;;;;;;;;;4459517;32;20304;-54
2022/04/05 06:26:11;;;;;;;21.30;14.50;;;;;;;;;;4448777;32;20766;-54
2022/04/05 06:28:37;;;;;;;27.30;15.17;;;;;;;;;;4456746;32;20686;-54
2022/04/05 06:31:02;;;;;;;26.00;14.20;;;;;;;;;;4447166;32;20421;-54
2022/04/05 06:33:28;;;;;;;21.23;12.30;;;;;;;;;;4459246;32;20398;-54
2022/04/05 06:35:57;;;;;;;17.33;12.47;;;;;;;;;;4447315;32;20326;-54
2022/04/05 06:38:23;;;;;;;20.77;13.20;;;;;;;;;;4437338;32;20315;-54
2022/04/05 06:40:49;;;;;;;17.10;10.40;;;;;;;;;;4448661;32;20353;-55
2022/04/05 06:43:16;;;;;;;20.63;11.10;;;;;;;;;;4446278;32;20225;-55
2022/04/05 06:45:42;;;;;;;18.90;10.37;;;;;;;;;;4452237;32;20624;-55
2022/04/05 06:48:09;;;;;;;14.33;8.93;;;;;;;;;;4461677;32;20395;-55
2022/04/05 06:50:35;;;;;;;20.10;11.07;;;;;;;;;;4451619;32;20656;-55
2022/04/05 06:53:02;;;;;;;16.37;11.70;;;;;;;;;;4446141;32;20232;-55
2022/04/05 06:55:28;;;;;;;18.30;11.83;;;;;;;;;;4457973;32;20356;-54
2022/04/05 06:57:54;;;;;;;17.03;11.43;;;;;;;;;;4451266;32;20304;-54
2022/04/05 07:00:23;;;;;;;17.50;10.33;;;;;;;;;;4459783;32;20278;-56
2022/04/05 07:02:49;;;;;;;22.03;12.97;;;;;;;;;;4454830;32;20311;-53
2022/04/05 07:05:15;;;;;;;24.87;15.63;;;;;;;;;;4453726;32;20255;-53
2022/04/05 07:07:41;;;;;;;21.77;14.87;;;;;;;;;;4452136;32;20533;-53
2022/04/05 07:10:09;;;;;;;22.70;13.80;;;;;;;;;;4447146;32;20313;-54
2022/04/05 07:12:35;;;;;;;21.10;13.67;;;;;;;;;;4453950;32;20549;-55
2022/04/05 07:15:00;;;;;;;17.37;12.80;;;;;;;;;;4448703;32;20286;-53
2022/04/05 07:17:26;;;;;;;18.20;11.30;;;;;;;;;;4454328;32;20365;-53
2022/04/05 07:19:54;;;;;;;14.23;10.33;;;;;;;;;;4456409;32;20373;-53
2022/04/05 07:22:20;;;;;;;18.17;9.70;;;;;;;;;;4447614;32;20329;-53
2022/04/05 07:24:46;;;;;;;14.53;8.70;;;;;;;;;;4459146;32;20267;-53
2022/04/05 07:27:12;;;;;;;12.50;7.90;;;;;;;;;;4453988;32;20255;-54
2022/04/05 07:29:38;;;;;;;11.17;7.27;;;;;;;;;;4459728;32;21161;-56
2022/04/05 07:32:04;;;;;;;19.03;8.40;;;;;;;;;;4456070;32;20951;-54
2022/04/05 07:34:30;;;;;;;8.03;6.43;;;;;;;;;;4452000;32;20335;-55
2022/04/05 07:36:55;;;;;;;14.50;7.80;;;;;;;;;;4450606;32;20276;-54
2022/04/05 07:39:22;;;;;;;11.80;6.90;;;;;;;;;;4458728;32;20228;-54
2022/04/05 07:41:48;;;;;;;9.73;6.27;;;;;;;;;;4452154;32;20458;-54
2022/04/05 07:44:14;;;;;;;13.63;7.00;;;;;;;;;;4448770;32;20232;-54
2022/04/05 07:46:39;;;;;;;17.17;8.23;;;;;;;;;;4446972;32;20334;-54
2022/04/05 07:49:05;;;;;;;10.87;8.37;;;;;;;;;;4450627;32;20259;-54
2022/04/05 07:51:30;;;;;;;12.43;7.63;;;;;;;;;;4454519;32;20250;-54
2022/04/05 07:53:56;;;;;;;7.80;6.10;;;;;;;;;;4451448;32;20285;-54
2022/04/05 07:56:21;;;;;;;8.93;5.90;;;;;;;;;;4453976;32;20287;-54
2022/04/05 07:58:47;;;;;;;7.33;5.07;;;;;;;;;;4454585;32;20378;-55
2022/04/05 08:01:13;;;;;;;12.90;7.33;;;;;;;;;;4444919;32;20357;-54
2022/04/05 08:03:39;;;;;;;11.90;6.63;;;;;;;;;;4450402;32;20256;-54
2022/04/05 08:06:05;;;;;;;9.53;6.43;;;;;;;;;;4449685;32;20365;-54
2022/04/05 08:08:31;;;;;;;8.97;6.50;;;;;;;;;;4451806;32;20251;-54
2022/04/05 08:10:57;;;;;;;8.73;5.87;;;;;;;;;;4448896;32;20293;-54
2022/04/05 08:13:23;;;;;;;7.67;5.20;;;;;;;;;;4456570;32;20303;-54
2022/04/05 08:15:49;;;;;;;9.33;5.30;;;;;;;;;;4454831;32;20314;-54
2022/04/05 08:18:15;;;;;;;10.50;5.70;;;;;;;;;;4457529;32;20347;-54
2022/04/05 08:20:41;;;;;;;7.63;5.47;;;;;;;;;;4454105;32;20354;-56
2022/04/05 08:23:09;;;;;;;14.63;5.90;;;;;;;;;;4454272;32;20307;-56
2022/04/05 08:25:36;;;;;;;7.43;5.13;;;;;;;;;;4446273;32;20310;-55
2022/04/05 08:28:02;;;;;;;9.70;6.67;;;;;;;;;;4450396;32;20236;-54
2022/04/05 08:30:27;;;;;;;9.23;5.97;;;;;;;;;;4451241;32;20825;-55
2022/04/05 08:32:53;;;;;;;10.40;6.03;;;;;;;;;;4455032;32;20247;-54
2022/04/05 08:35:21;;;;;;;12.33;7.27;;;;;;;;;;4450647;32;20835;-55
2022/04/05 08:37:47;;;;;;;8.67;5.90;;;;;;;;;;4445447;32;20838;-54
2022/04/05 08:40:14;;;;;;;8.87;6.10;;;;;;;;;;4449461;32;20385;-53
2022/04/05 08:42:42;;;;;;;6.53;4.63;;;;;;;;;;4444420;32;20333;-54
2022/04/05 08:45:10;;;;;;;11.43;3.97;;;;;;;;;;4449324;32;20283;-54
2022/04/05 08:47:39;;;;;;;5.47;4.07;;;;;;;;;;4446121;32;20660;-53
2022/04/05 08:50:06;;;;;;;9.23;4.60;;;;;;;;;;4454612;32;20292;-55
2022/04/05 08:52:32;;;;;;;7.30;5.20;;;;;;;;;;4451364;32;20668;-56
2022/04/05 08:54:57;;;;;;;5.83;4.67;;;;;;;;;;4449245;32;20393;-55
2022/04/05 08:57:23;;;;;;;8.47;4.50;;;;;;;;;;4448310;32;20258;-54
2022/04/05 08:59:48;;;;;;;8.00;5.37;;;;;;;;;;4446206;32;20295;-54
2022/04/05 09:02:24;;;;;;;7.87;5.40;;;;;;;;;;4450648;32;20484;-54
2022/04/05 09:04:49;;;;;;;6.60;4.47;;;;;;;;;;4451300;32;20630;-54
2022/04/05 09:07:18;;;;;;;6.47;4.07;;;;;;;;;;4446804;32;20239;-54
2022/04/05 09:09:44;;;;;;;5.23;3.97;;;;;;;;;;4449374;32;20905;-57
2022/04/05 09:12:17;;;;;;;7.00;4.60;;;;;;;;;;4453339;32;20363;-54
2022/04/05 09:14:42;;;;;;;5.77;4.00;;;;;;;;;;4453767;32;20228;-55
2022/04/05 09:17:14;;;;;;;4.23;3.80;;;;;;;;;;4449462;32;20818;-54
2022/04/05 09:19:42;;;;;;;6.90;4.70;;;;;;;;;;4447526;32;20235;-54
2022/04/05 09:22:09;;;;;;;6.47;5.23;;;;;;;;;;4451753;32;20346;-55
2022/04/05 09:24:39;;;;;;;5.83;4.33;;;;;;;;;;4452151;32;20303;-55
2022/04/05 09:27:05;;;;;;;6.97;3.47;;;;;;;;;;4450072;32;20299;-54
2022/04/05 09:29:41;;;;;;;3.67;3.27;;;;;;;;;;4452554;32;20670;-54
2022/04/05 09:32:08;;;;;;;4.63;3.70;;;;;;;;;;4443530;32;20243;-55
2022/04/05 09:34:47;;;;;;;4.27;3.80;;;;;;;;;;4455399;32;20310;-54
2022/04/05 09:37:13;;;;;;;5.30;3.70;;;;;;;;;;4447447;32;20621;-54
2022/04/05 09:39:38;;;;;;;4.63;3.37;;;;;;;;;;4453253;32;20317;-56
2022/04/05 09:42:07;;;;;;;5.57;4.03;;;;;;;;;;4444482;32;20390;-56
2022/04/05 09:44:42;;;;;;;6.13;4.10;;;;;;;;;;4443375;32;20303;-55
2022/04/05 09:47:17;;;;;;;6.53;3.80;;;;;;;;;;4443951;32;20830;-56
2022/04/05 09:49:45;;;;;;;5.50;3.43;;;;;;;;;;4450679;32;20391;-55
2022/04/05 09:52:33;;;;;;;7.03;4.47;;;;;;;;;;4459598;32;20204;-55
2022/04/05 09:55:13;;;;;;;4.47;3.07;;;;;;;;;;4454857;32;20838;-56
2022/04/05 09:57:38;;;;;;;6.33;3.50;;;;;;;;;;4448045;32;20302;-55
2022/04/05 10:00:18;;;;;;;5.33;3.83;;;;;;;;;;4459138;32;20766;-55
2022/04/05 10:03:02;;;;;;;4.50;3.70;;;;;;;;;;4449684;32;20274;-55
2022/04/05 10:05:32;;;;;;;4.27;3.60;;;;;;;;;;4445715;32;20580;-55
2022/04/05 10:07:58;;;;;;;6.03;3.77;;;;;;;;;;4450088;32;20302;-56
2022/04/05 10:10:24;;;;;;;5.47;4.10;;;;;;;;;;4448083;32;20346;-55
2022/04/05 10:12:50;;;;;;;7.07;5.00;;;;;;;;;;4454379;32;20648;-53
2022/04/05 10:15:16;;;;;;;7.40;4.33;;;;;;;;;;4457323;32;20562;-54
2022/04/05 10:17:45;;;;;;;7.97;5.30;;;;;;;;;;4453363;32;20232;-54
2022/04/05 10:20:12;;;;;;;8.97;4.97;;;;;;;;;;4454221;32;20742;-54
2022/04/05 10:22:39;;;;;;;6.37;4.20;;;;;;;;;;4455720;32;20251;-54
2022/04/05 10:25:06;;;;;;;7.23;4.90;;;;;;;;;;4455984;32;20338;-54
2022/04/05 10:27:31;;;;;;;5.67;3.90;;;;;;;;;;4451687;32;20256;-54
2022/04/05 10:30:03;;;;;;;5.53;4.57;;;;;;;;;;4456095;32;20271;-55
2022/04/05 10:32:46;;;;;;;5.60;4.13;;;;;;;;;;4448607;32;20539;-55
2022/04/05 10:35:14;;;;;;;4.50;2.93;;;;;;;;;;4447898;32;20244;-55
2022/04/05 10:37:39;;;;;;;8.07;4.43;;;;;;;;;;4449021;32;20329;-55
2022/04/05 10:40:05;;;;;;;8.87;2.80;;;;;;;;;;4457273;32;20304;-55
2022/04/05 10:42:39;;;;;;;4.37;3.77;;;;;;;;;;4453647;32;21047;-55
2022/04/05 10:45:16;;;;;;;5.00;3.80;;;;;;;;;;4457739;32;20325;-55
2022/04/05 10:48:01;;;;;;;4.27;3.87;;;;;;;;;;4453714;32;20342;-56
2022/04/05 10:50:27;;;;;;;6.73;3.70;;;;;;;;;;4454008;32;20227;-56
2022/04/05 10:53:15;;;;;;;11.27;5.13;;;;;;;;;;4457406;32;20683;-54
2022/04/05 10:56:02;;;;;;;7.10;4.10;;;;;;;;;;4446539;32;20216;-55
2022/04/05 10:58:27;;;;;;;7.70;4.27;;;;;;;;;;4456308;32;20290;-55
2022/04/05 11:01:12;;;;;;;4.47;2.83;;;;;;;;;;4449458;32;20379;-55
2022/04/05 11:03:38;;;;;;;3.17;2.67;;;;;;;;;;4448822;32;20679;-54
2022/04/05 11:06:04;;;;;;;6.43;3.33;;;;;;;;;;4448942;32;20271;-54
2022/04/05 11:08:31;;;;;;;10.40;3.42;;;;;;;;;;4455697;32;20406;-55
2022/04/05 11:11:00;;;;;;;3.67;2.50;;;;;;;;;;4457003;32;20564;-56
2022/04/05 11:13:39;;;;;;;7.37;3.00;;;;;;;;;;4456545;32;20228;-56
2022/04/05 11:16:09;;;;;;;11.27;3.90;;;;;;;;;;4448519;32;20774;-56
2022/04/05 11:18:37;;;;;;;4.00;2.75;;;;;;;;;;4460321;32;20326;-56
2022/04/05 11:21:08;;;;;;;5.17;2.77;;;;;;;;;;4455504;32;20294;-56
2022/04/05 11:23:53;;;;;;;3.93;3.20;;;;;;;;;;4444162;32;20319;-55
2022/04/05 11:26:24;;;;;;;2.87;2.17;;;;;;;;;;4454530;32;20225;-56
2022/04/05 11:28:50;;;;;;;3.90;2.87;;;;;;;;;;4445445;32;20845;-55
2022/04/05 11:31:39;;;;;;;5.87;3.57;;;;;;;;;;4456872;32;20327;-56
2022/04/05 11:34:34;;;;;;;4.57;2.90;;;;;;;;;;4453428;32;20314;-56
2022/04/05 11:37:00;;;;;;;9.90;4.00;;;;;;;;;;4448988;32;20306;-56
2022/04/05 11:39:25;;;;;;;4.80;3.10;;;;;;;;;;4458288;32;20227;-56
2022/04/05 11:42:00;;;;;;;7.53;3.20;;;;;;;;;;4456795;32;20211;-57
2022/04/05 11:44:26;;;;;;;6.53;3.33;;;;;;;;;;4447115;32;20265;-57
2022/04/05 11:46:55;;;;;;;3.95;2.53;;;;;;;;;;4455071;32;20263;-56
2022/04/05 11:49:22;;;;;;;7.05;3.28;;;;;;;;;;4444247;32;20278;-57
2022/04/05 11:51:48;;;;;;;3.05;2.40;;;;;;;;;;4439747;32;20240;-57
2022/04/05 11:54:18;;;;;;;7.82;3.03;;;;;;;;;;4458796;32;20664;-56
2022/04/05 11:56:45;;;;;;;12.02;3.05;;;;;;;;;;4459945;32;20235;-56
2022/04/05 11:59:15;;;;;;;4.30;2.67;;;;;;;;;;4456576;32;20271;-57
2022/04/05 12:01:43;;;;;;;3.75;2.58;;;;;;;;;;4444573;32;20240;-56
2022/04/05 12:04:10;;;;;;;4.90;2.80;;;;;;;;;;4445106;32;20404;-56
2022/04/05 12:06:41;;;;;;;5.47;2.85;;;;;;;;;;4446579;32;20282;-56
2022/04/05 12:09:12;;;;;;;7.68;2.45;;;;;;;;;;4450167;32;20294;-57
2022/04/05 12:11:40;;;;;;;4.37;2.63;;;;;;;;;;4450422;32;20401;-56
2022/04/05 12:14:10;;;;;;;2.97;2.25;;;;;;;;;;4458123;32;20221;-56
2022/04/05 12:16:49;;;;;;;5.93;3.00;;;;;;;;;;4457411;32;20228;-56
2022/04/05 12:19:25;;;;;;;4.60;2.35;;;;;;;;;;4457988;32;20369;-56
2022/04/05 12:21:55;;;;;;;3.35;2.65;;;;;;;;;;4451304;32;20302;-56
2022/04/05 12:24:22;;;;;;;3.45;2.62;;;;;;;;;;4455557;32;20498;-55
2022/04/05 12:26:48;;;;;;;2.73;2.10;;;;;;;;;;4446817;32;20342;-57
2022/04/05 12:29:14;;;;;;;3.28;2.37;;;;;;;;;;4446513;32;20314;-57
2022/04/05 12:31:40;;;;;;;5.80;2.60;;;;;;;;;;4448951;32;20321;-56
2022/04/05 12:34:13;;;;;;;3.97;2.33;;;;;;;;;;4449320;32;20307;-56
2022/04/05 12:36:44;;;;;;;4.57;2.65;;;;;;;;;;4443929;32;20351;-55
2022/04/05 12:39:25;;;;;;;6.62;2.60;;;;;;;;;;4446736;32;20394;-56
2022/04/05 12:41:57;;;;;;;4.65;2.65;;;;;;;;;;4452266;32;20204;-56
2022/04/05 12:44:27;;;;;;;6.70;2.72;;;;;;;;;;4453762;32;20237;-56
2022/04/05 12:46:53;;;;;;;4.00;2.42;;;;;;;;;;4449130;32;20330;-56
2022/04/05 12:49:38;;;;;;;3.55;2.22;;;;;;;;;;4446430;32;20232;-56
2022/04/05 12:52:17;;;;;;;2.62;2.40;;;;;;;;;;4456249;32;20672;-56
2022/04/05 12:54:56;;;;;;;2.10;1.87;;;;;;;;;;4454414;32;20310;-56
2022/04/05 12:57:24;;;;;;;2.90;1.95;;;;;;;;;;4443711;32;20618;-56
2022/04/05 12:59:53;;;;;;;10.63;2.37;;;;;;;;;;4450658;32;20319;-56
2022/04/05 13:02:25;;;;;;;3.65;2.10;;;;;;;;;;4454520;32;20371;-56
2022/04/05 13:06:19;;;;;;;3.92;2.12;;;;;;;;;;4449194;32;20603;-56
2022/04/05 13:07:53;;;;;;;2.60;2.03;;;;;;;;;;4446261;32;20727;-56
2022/04/05 13:10:18;;;;;;;4.82;2.85;;;;;;;;;;4453292;32;20314;-56
2022/04/05 13:12:44;;;;;;;2.45;1.90;;;;;;;;;;4445024;32;20722;-56
2022/04/05 13:15:12;;;;;;;2.90;2.03;;;;;;;;;;4453959;32;20338;-56
2022/04/05 13:17:38;;;;;;;4.70;3.15;;;;;;;;;;4447766;32;20239;-56
2022/04/05 13:20:07;;;;;;;2.05;1.85;;;;;;;;;;4452327;32;20339;-57
2022/04/05 13:22:34;;;;;;;5.37;3.08;;;;;;;;;;4455346;32;20310;-56
2022/04/05 13:25:00;;;;;;;2.65;1.83;;;;;;;;;;4453686;32;20630;-56
2022/04/05 13:27:26;;;;;;;3.28;2.00;;;;;;;;;;4453021;32;20342;-56
2022/04/05 13:29:51;;;;;;;2.45;1.58;;;;;;;;;;4443703;32;20668;-56
2022/04/05 13:32:22;;;;;;;2.35;1.55;;;;;;;;;;4444458;32;20291;-55
2022/04/05 13:34:48;;;;;;;3.35;1.65;;;;;;;;;;4457942;32;20763;-55
2022/04/05 13:37:16;;;;;;;9.57;2.70;;;;;;;;;;4447074;32;20223;-55
2022/04/05 13:39:42;;;;;;;4.47;2.53;;;;;;;;;;4447807;32;20242;-54
2022/04/05 13:42:09;;;;;;;2.37;1.90;;;;;;;;;;4449372;32;20219;-55
2022/04/05 13:44:36;;;;;;;8.05;4.03;;;;;;;;;;4453344;32;20221;-55
2022/04/05 13:47:03;;;;;;;3.12;1.95;;;;;;;;;;4451235;32;20205;-55
2022/04/05 13:49:30;;;;;;;3.10;2.22;;;;;;;;;;4448925;32;20660;-55
2022/04/05 13:51:57;;;;;;;2.15;1.92;;;;;;;;;;4446228;32;20274;-55
2022/04/05 13:54:24;;;;;;;5.82;2.10;;;;;;;;;;4453999;32;20259;-54
2022/04/05 13:56:51;;;;;;;9.80;2.42;;;;;;;;;;4444301;32;20295;-55
2022/04/05 13:59:17;;;;;;;2.60;1.70;;;;;;;;;;4453853;32;20810;-54
2022/04/05 14:01:43;;;;;;;2.25;1.80;;;;;;;;;;4456969;32;20325;-55
2022/04/05 14:04:09;;;;;;;8.23;2.28;;;;;;;;;;4444126;32;20331;-55
2022/04/05 14:06:36;;;;;;;3.67;2.12;;;;;;;;;;4446398;32;20334;-54
2022/04/05 14:09:05;;;;;;;4.47;2.30;;;;;;;;;;4453314;32;20227;-55
2022/04/05 14:11:31;;;;;;;4.60;2.62;;;;;;;;;;4451816;32;20200;-55
2022/04/05 14:13:58;;;;;;;5.22;2.45;;;;;;;;;;4451563;32;20267;-54
2022/04/05 14:16:24;;;;;;;3.25;2.08;;;;;;;;;;4451261;32;20382;-54
2022/04/05 14:18:50;;;;;;;4.55;2.33;;;;;;;;;;4454264;32;20337;-58
2022/04/05 14:21:16;;;;;;;3.25;2.40;;;;;;;;;;4450186;32;20343;-55
2022/04/05 14:23:43;;;;;;;3.70;1.98;;;;;;;;;;4454762;32;20696;-56
2022/04/05 14:26:10;;;;;;;9.13;3.35;;;;;;;;;;4452014;32;20285;-55
2022/04/05 14:28:35;;;;;;;6.80;2.95;;;;;;;;;;4455025;32;20311;-55
2022/04/05 14:31:01;;;;;;;2.53;2.05;;;;;;;;;;4451647;32;20557;-55
2022/04/05 14:33:27;;;;;;;5.55;2.55;;;;;;;;;;4447739;32;20699;-55
2022/04/05 14:35:53;;;;;;;5.30;2.45;;;;;;;;;;4452194;32;20422;-55
2022/04/05 14:38:18;;;;;;;3.05;2.08;;;;;;;;;;4458084;32;20358;-55